createdAt,value
2024-01-19T00:02:18.830Z,21.20
2024-01-19T00:04:46.179Z,21.50
2024-01-19T00:07:14.070Z,26.00
2024-01-19T00:09:41.105Z,26.70
2024-01-19T00:12:08.451Z,27.50
2024-01-19T00:14:35.876Z,27.20
2024-01-19T00:17:03.037Z,24.60
2024-01-19T00:19:30.040Z,57.70
2024-01-19T00:21:57.263Z,36.60
2024-01-19T00:24:24.477Z,37.30
2024-01-19T00:26:52.533Z,32.80
2024-01-19T00:29:19.761Z,61.20
2024-01-19T00:31:48.449Z,31.90
2024-01-19T00:34:17.227Z,30.50
2024-01-19T00:36:44.824Z,39.50
2024-01-19T00:39:12.078Z,69.90
2024-01-19T00:41:39.550Z,45.60
2024-01-19T00:44:06.812Z,41.50
2024-01-19T00:46:34.046Z,37.30
2024-01-19T00:49:01.400Z,34.40
2024-01-19T00:51:28.838Z,63.30
2024-01-19T00:53:56.165Z,46.00
2024-01-19T00:56:23.673Z,40.40
2024-01-19T00:58:50.985Z,37.50
2024-01-19T01:01:18.274Z,34.20
2024-01-19T01:03:46.070Z,31.80
2024-01-19T01:06:13.364Z,29.60
2024-01-19T01:08:40.910Z,30.40
2024-01-19T01:11:10.213Z,34.70
2024-01-19T01:13:37.683Z,30.90
2024-01-19T01:16:05.119Z,29.40
2024-01-19T01:18:32.348Z,25.80
2024-01-19T01:20:59.661Z,26.50
2024-01-19T01:23:27.164Z,29.50
2024-01-19T01:25:54.598Z,29.40
2024-01-19T01:28:21.830Z,34.80
2024-01-19T01:30:49.095Z,30.20
2024-01-19T01:33:17.000Z,43.80
2024-01-19T01:35:44.681Z,33.60
2024-01-19T01:38:13.037Z,32.70
2024-01-19T01:40:40.289Z,27.80
2024-01-19T01:43:07.937Z,33.00
2024-01-19T01:45:35.495Z,30.70
2024-01-19T01:48:03.523Z,30.00
2024-01-19T01:50:31.434Z,28.10
2024-01-19T01:52:59.183Z,29.10
2024-01-19T01:55:26.893Z,27.20
2024-01-19T01:57:54.457Z,26.50
2024-01-19T02:04:06.094Z,27.00
2024-01-19T02:06:54.663Z,25.50
2024-01-19T02:09:55.750Z,23.30
2024-01-19T02:12:53.707Z,22.40
2024-01-19T02:16:01.716Z,24.90
2024-01-19T02:18:49.883Z,26.20
2024-01-19T02:21:50.177Z,26.70
2024-01-19T02:24:20.317Z,28.20
2024-01-19T02:27:47.183Z,25.50
2024-01-19T02:31:14.077Z,21.60
2024-01-19T02:34:41.413Z,22.60
2024-01-19T02:37:40.842Z,20.30
2024-01-19T02:40:57.421Z,19.00
2024-01-19T02:44:22.376Z,19.40
2024-01-19T02:47:49.568Z,19.00
2024-01-19T02:50:45.698Z,18.70
2024-01-19T02:54:12.842Z,19.30
2024-01-19T02:57:44.134Z,20.40
2024-01-19T03:01:11.179Z,19.50
2024-01-19T03:04:58.044Z,20.50
2024-01-19T03:08:30.461Z,39.40
2024-01-19T03:12:01.832Z,48.80
2024-01-19T03:15:48.613Z,26.10
2024-01-19T03:19:35.493Z,23.30
2024-01-19T03:23:06.078Z,23.40
2024-01-19T03:26:33.491Z,27.90
2024-01-19T03:30:00.609Z,31.30
2024-01-19T03:33:28.015Z,20.00
2024-01-19T03:37:14.572Z,18.30
2024-01-19T03:40:41.499Z,17.00
2024-01-19T03:43:51.317Z,21.10
2024-01-19T03:47:38.319Z,18.20
2024-01-19T03:51:09.041Z,16.00
2024-01-19T03:54:37.159Z,17.30
2024-01-19T03:58:27.295Z,18.60
2024-01-19T04:02:00.945Z,17.50
2024-01-19T04:05:48.403Z,13.40
2024-01-19T04:09:35.184Z,17.20
2024-01-19T04:13:02.683Z,16.90
2024-01-19T04:16:49.441Z,15.90
2024-01-19T04:20:36.646Z,16.00
2024-01-19T04:24:23.359Z,15.50
2024-01-19T04:27:51.126Z,15.00
2024-01-19T04:34:46.470Z,13.90
2024-01-19T04:38:26.884Z,13.00
2024-01-19T04:42:13.674Z,11.80
2024-01-19T04:46:00.786Z,11.20
2024-01-19T04:49:29.143Z,10.80
2024-01-19T04:52:59.237Z,9.10
2024-01-19T04:56:37.975Z,10.50
2024-01-19T05:00:04.855Z,9.50
2024-01-19T05:03:51.814Z,10.30
2024-01-19T05:07:18.676Z,10.10
2024-01-19T05:10:46.152Z,9.80
2024-01-19T05:14:13.446Z,8.50
2024-01-19T05:18:00.324Z,11.20
2024-01-19T05:21:35.934Z,13.80
2024-01-19T05:25:03.397Z,10.10
2024-01-19T05:28:53.164Z,13.80
2024-01-19T05:32:22.619Z,13.40
2024-01-19T05:35:49.865Z,12.50
2024-01-19T05:39:16.770Z,9.30
2024-01-19T05:43:05.908Z,18.90
2024-01-19T05:46:51.690Z,10.90
2024-01-19T05:50:38.612Z,16.10
2024-01-19T05:54:25.303Z,12.20
2024-01-19T05:58:12.652Z,14.30
2024-01-19T06:01:59.518Z,9.40
2024-01-19T06:05:49.541Z,10.20
2024-01-19T06:09:36.518Z,10.70
2024-01-19T06:17:08.290Z,10.60
2024-01-19T06:20:55.369Z,23.80
2024-01-19T06:24:42.693Z,14.80
2024-01-19T06:28:30.271Z,10.80
2024-01-19T06:32:17.368Z,17.60
2024-01-19T06:36:05.241Z,12.20
2024-01-19T06:39:52.701Z,10.20
2024-01-19T06:43:39.855Z,11.20
2024-01-19T06:47:28.880Z,10.90
2024-01-19T06:51:16.196Z,9.60
2024-01-19T06:55:03.029Z,10.50
2024-01-19T06:58:49.971Z,11.30
2024-01-19T07:02:37.129Z,11.70
2024-01-19T07:06:29.892Z,11.90
2024-01-19T07:10:16.861Z,12.00
2024-01-19T07:14:03.601Z,14.30
2024-01-19T07:17:51.935Z,13.20
2024-01-19T07:21:26.247Z,12.60
2024-01-19T07:25:13.289Z,12.40
2024-01-19T07:29:03.465Z,13.10
2024-01-19T07:33:01.318Z,13.10
2024-01-19T07:36:38.539Z,12.40
2024-01-19T07:40:06.156Z,14.00
2024-01-19T07:43:54.507Z,17.20
2024-01-19T07:51:08.458Z,48.00
2024-01-19T07:54:35.933Z,21.90
2024-01-19T07:58:22.858Z,15.20
2024-01-19T08:02:09.723Z,12.70
2024-01-19T08:05:56.987Z,12.30
2024-01-19T08:09:43.756Z,13.20
2024-01-19T08:13:14.132Z,14.60
2024-01-19T08:17:01.904Z,19.20
2024-01-19T08:20:48.981Z,14.80
2024-01-19T08:24:35.801Z,14.20
2024-01-19T08:28:23.187Z,12.50
2024-01-19T08:32:14.703Z,14.80
2024-01-19T08:36:02.260Z,16.60
2024-01-19T08:39:49.285Z,15.80
2024-01-19T08:43:36.495Z,13.50
2024-01-19T08:46:26.648Z,13.20
2024-01-19T08:49:57.174Z,13.70
2024-01-19T08:56:38.748Z,14.20
2024-01-19T08:59:08.222Z,12.70
2024-01-19T09:01:35.805Z,14.10
2024-01-19T09:04:03.338Z,13.50
2024-01-19T09:06:31.146Z,13.60
2024-01-19T09:09:02.784Z,14.50
2024-01-19T09:11:30.859Z,13.60
2024-01-19T09:13:58.300Z,13.50
2024-01-19T09:16:25.559Z,14.10
2024-01-19T09:18:53.144Z,13.10
2024-01-19T09:21:20.887Z,14.10
2024-01-19T09:23:48.118Z,14.80
2024-01-19T09:26:22.536Z,15.10
2024-01-19T09:28:51.862Z,17.00
2024-01-19T09:31:19.333Z,15.40
2024-01-19T09:33:47.167Z,16.20
2024-01-19T09:36:15.192Z,15.90
2024-01-19T09:38:44.652Z,16.20
2024-01-19T09:41:33.989Z,17.00
2024-01-19T09:44:03.654Z,17.80
2024-01-19T09:46:31.104Z,16.10
2024-01-19T09:49:21.625Z,16.70
2024-01-19T09:52:12.606Z,16.60
2024-01-19T09:54:41.759Z,15.60
2024-01-19T09:57:08.899Z,14.90
2024-01-19T09:59:36.130Z,15.90
2024-01-19T10:02:03.942Z,17.60
2024-01-19T10:04:31.540Z,14.70
2024-01-19T10:06:58.913Z,15.30
2024-01-19T10:09:26.575Z,13.60
2024-01-19T10:11:55.769Z,14.20
2024-01-19T10:14:33.328Z,14.70
2024-01-19T10:17:02.689Z,14.00
2024-01-19T10:19:32.816Z,15.60
2024-01-19T10:22:29.499Z,16.10
2024-01-19T10:25:09.895Z,16.50
2024-01-19T10:27:54.696Z,15.30
2024-01-19T10:30:31.649Z,14.70
2024-01-19T10:33:08.885Z,14.80
2024-01-19T10:35:41.455Z,15.90
2024-01-19T10:38:11.163Z,15.70
2024-01-19T10:40:38.335Z,17.00
2024-01-19T10:43:08.594Z,16.20
2024-01-19T10:45:39.981Z,15.60
2024-01-19T10:48:08.811Z,13.90
2024-01-19T10:50:36.807Z,14.20
2024-01-19T10:53:14.080Z,15.90
2024-01-19T10:55:49.993Z,13.20
2024-01-19T10:58:21.625Z,15.10
2024-01-19T11:00:48.844Z,15.00
2024-01-19T11:03:18.825Z,14.20
2024-01-19T11:05:49.031Z,14.30
2024-01-19T11:08:16.453Z,12.50
2024-01-19T11:10:48.887Z,12.50
2024-01-19T11:13:19.733Z,12.20
2024-01-19T11:15:50.821Z,13.00
2024-01-19T11:18:18.330Z,11.50
2024-01-19T11:20:46.375Z,13.70
2024-01-19T11:23:14.681Z,13.40
2024-01-19T11:26:01.360Z,12.60
2024-01-19T11:31:34.439Z,12.40
2024-01-19T11:34:02.683Z,13.60
2024-01-19T11:36:45.295Z,14.70
2024-01-19T11:39:15.531Z,15.30
2024-01-19T11:41:46.238Z,14.30
2024-01-19T11:44:44.852Z,15.30
2024-01-19T11:47:38.214Z,14.40
2024-01-19T11:50:07.665Z,15.10
2024-01-19T11:52:43.311Z,14.50
2024-01-19T11:55:34.098Z,15.20
2024-01-19T11:58:26.618Z,13.40
2024-01-19T12:00:59.744Z,15.40
2024-01-19T12:03:28.938Z,15.10
2024-01-19T12:06:02.203Z,13.60
2024-01-19T12:08:32.679Z,14.20
2024-01-19T12:11:12.900Z,15.30
2024-01-19T12:13:49.168Z,15.90
2024-01-19T12:16:27.297Z,14.10
2024-01-19T12:18:59.040Z,16.00
2024-01-19T12:21:30.061Z,16.40
2024-01-19T12:23:59.079Z,16.70
2024-01-19T12:26:29.169Z,17.70
2024-01-19T12:28:59.076Z,17.80
2024-01-19T12:31:38.666Z,17.30
2024-01-19T12:34:17.541Z,14.70
2024-01-19T12:36:47.644Z,13.10
2024-01-19T12:39:19.269Z,13.40
2024-01-19T12:42:11.732Z,13.60
2024-01-19T12:44:39.100Z,13.70
2024-01-19T12:47:06.651Z,13.50
2024-01-19T12:49:40.175Z,16.10
2024-01-19T12:52:13.420Z,14.60
2024-01-19T12:54:46.579Z,16.10
2024-01-19T12:57:20.643Z,15.50
2024-01-19T13:00:13.319Z,16.30
2024-01-19T13:02:43.297Z,16.00
2024-01-19T13:05:21.602Z,21.20
2024-01-19T13:07:53.497Z,17.90
2024-01-19T13:10:23.573Z,18.50
2024-01-19T13:13:04.755Z,16.30
2024-01-19T13:15:35.728Z,17.90
2024-01-19T13:18:19.762Z,19.40
2024-01-19T13:20:47.261Z,16.90
2024-01-19T13:23:15.082Z,17.00
2024-01-19T13:25:56.759Z,20.80
2024-01-19T13:28:24.066Z,19.40
2024-01-19T13:30:51.713Z,17.20
2024-01-19T13:34:19.650Z,18.20
2024-01-19T13:38:06.974Z,18.10
2024-01-19T13:41:55.493Z,16.90
2024-01-19T13:45:43.267Z,14.30
2024-01-19T13:49:31.093Z,18.80
2024-01-19T13:53:18.693Z,19.30
2024-01-19T13:57:06.389Z,15.10
2024-01-19T14:00:56.812Z,17.70
2024-01-19T14:04:44.569Z,18.10
2024-01-19T14:08:33.853Z,17.90
2024-01-19T14:12:22.720Z,18.80
2024-01-19T14:16:13.504Z,21.10
2024-01-19T14:20:01.293Z,19.00
2024-01-19T14:23:51.251Z,21.40
2024-01-19T14:27:41.702Z,21.40
2024-01-19T14:31:29.532Z,18.30
2024-01-19T14:35:17.896Z,21.10
2024-01-19T14:39:05.905Z,20.00
2024-01-19T14:42:59.997Z,21.10
2024-01-19T14:46:45.371Z,19.80
2024-01-19T14:50:39.052Z,19.80
2024-01-19T14:54:26.900Z,15.20
2024-01-19T14:58:14.700Z,19.00
2024-01-19T15:02:02.863Z,19.30
2024-01-19T15:05:50.798Z,18.60
2024-01-19T15:09:38.590Z,20.30
2024-01-19T15:13:26.687Z,18.00
2024-01-19T15:17:17.428Z,17.20
2024-01-19T15:21:06.870Z,20.30
2024-01-19T15:24:54.653Z,20.10
2024-01-19T15:28:43.646Z,19.40
2024-01-19T15:32:35.784Z,20.90
2024-01-19T15:36:22.742Z,27.30
2024-01-19T15:40:11.335Z,30.20
2024-01-19T15:43:07.804Z,23.90
2024-01-19T15:46:55.103Z,24.80
2024-01-19T15:50:20.526Z,23.10
2024-01-19T15:53:36.696Z,27.20
2024-01-19T16:00:26.813Z,28.70
2024-01-19T16:04:17.603Z,31.10
2024-01-19T16:08:05.365Z,35.60
2024-01-19T16:11:53.309Z,35.30
2024-01-19T16:15:41.279Z,35.60
2024-01-19T16:19:29.199Z,35.30
2024-01-19T16:23:17.083Z,35.40
2024-01-19T16:27:05.066Z,32.10
2024-01-19T16:30:53.450Z,40.40
2024-01-19T16:34:41.576Z,35.70
2024-01-19T16:38:32.166Z,33.40
2024-01-19T16:42:23.660Z,32.50
2024-01-19T16:46:12.468Z,29.90
2024-01-19T16:50:03.176Z,38.30
2024-01-19T16:53:50.983Z,43.20
2024-01-19T16:57:41.590Z,37.20
2024-01-19T17:01:30.795Z,35.40
2024-01-19T17:05:18.968Z,35.00
2024-01-19T17:09:07.780Z,36.10
2024-01-19T17:12:57.015Z,37.40
2024-01-19T17:16:25.757Z,34.70
2024-01-19T17:20:13.228Z,30.90
2024-01-19T17:24:09.375Z,33.70
2024-01-19T17:27:57.253Z,34.00
2024-01-19T17:31:46.468Z,36.00
2024-01-19T17:35:34.837Z,34.60
2024-01-19T17:39:30.452Z,34.70
2024-01-19T17:43:16.648Z,33.50
2024-01-19T17:47:10.503Z,30.50
2024-01-19T17:50:58.634Z,32.70
2024-01-19T17:54:46.753Z,31.20
2024-01-19T17:58:35.212Z,29.30
2024-01-19T18:02:24.369Z,30.10
2024-01-19T18:06:12.015Z,31.50
2024-01-19T18:10:05.299Z,30.00
2024-01-19T18:13:54.551Z,28.90
2024-01-19T18:17:44.698Z,29.00
2024-01-19T18:21:47.129Z,28.00
2024-01-19T18:25:39.975Z,26.50
2024-01-19T18:29:27.618Z,27.80
2024-01-19T18:33:17.772Z,25.70
2024-01-19T18:37:06.919Z,24.10
2024-01-19T18:44:41.615Z,22.80
2024-01-19T18:48:29.355Z,22.60
2024-01-19T18:52:17.615Z,23.20
2024-01-19T18:56:05.515Z,18.60
2024-01-19T18:59:53.892Z,23.60
2024-01-19T19:03:44.052Z,19.70
2024-01-19T19:06:19.141Z,21.20
2024-01-19T19:08:51.398Z,20.00
2024-01-19T19:11:19.901Z,17.60
2024-01-19T19:13:49.465Z,17.90
2024-01-19T19:16:26.356Z,16.30
2024-01-19T19:19:02.907Z,17.20
2024-01-19T19:21:30.176Z,15.80
2024-01-19T19:23:58.153Z,16.10
2024-01-19T19:26:25.441Z,16.50
2024-01-19T19:28:55.623Z,16.30
2024-01-19T19:31:22.794Z,16.80
2024-01-19T19:33:49.757Z,14.60
2024-01-19T19:36:16.920Z,16.80
2024-01-19T19:38:45.789Z,14.50
2024-01-19T19:41:14.056Z,17.30
2024-01-19T19:43:41.902Z,19.30
2024-01-19T19:46:15.354Z,14.00
2024-01-19T19:48:43.883Z,11.30
2024-01-19T19:51:11.563Z,12.30
2024-01-19T19:53:39.279Z,13.30
2024-01-19T19:56:09.405Z,11.70
2024-01-19T19:58:39.370Z,14.90
2024-01-19T20:01:11.094Z,12.90
2024-01-19T20:03:40.342Z,12.30
2024-01-19T20:06:10.974Z,12.30
2024-01-19T20:08:38.053Z,12.10
2024-01-19T20:11:07.472Z,12.60
2024-01-19T20:13:35.155Z,12.50
2024-01-19T20:16:02.526Z,12.00
2024-01-19T20:18:31.405Z,11.50
2024-01-19T20:20:59.441Z,12.20
2024-01-19T20:23:27.265Z,11.50
2024-01-19T20:25:54.744Z,12.40
2024-01-19T20:28:22.684Z,13.40
2024-01-19T20:30:49.944Z,11.60
2024-01-19T20:33:18.024Z,12.70
2024-01-19T20:35:46.421Z,13.70
2024-01-19T20:38:14.351Z,10.60
2024-01-19T20:40:42.572Z,12.10
2024-01-19T20:43:10.777Z,11.90
2024-01-19T20:45:41.225Z,12.80
2024-01-19T20:48:08.461Z,11.70
2024-01-19T20:50:35.541Z,10.80
2024-01-19T20:53:05.149Z,12.00
2024-01-19T20:55:32.689Z,12.80
2024-01-19T20:58:01.772Z,11.80
2024-01-19T21:00:30.168Z,12.40
2024-01-19T21:02:57.731Z,13.20
2024-01-19T21:05:25.158Z,12.30
2024-01-19T21:07:55.588Z,13.20
2024-01-19T21:10:27.156Z,12.10
2024-01-19T21:12:56.604Z,12.90
2024-01-19T21:15:26.096Z,14.70
2024-01-19T21:17:55.077Z,13.40
2024-01-19T21:20:24.695Z,13.90
2024-01-19T21:22:53.583Z,14.20
2024-01-19T21:25:22.053Z,15.10
2024-01-19T21:27:49.497Z,15.30
2024-01-19T21:30:17.065Z,11.80
2024-01-19T21:32:44.327Z,15.50
2024-01-19T21:35:11.906Z,14.60
2024-01-19T21:37:40.056Z,13.40
2024-01-19T21:40:12.276Z,14.20
2024-01-19T21:42:45.788Z,14.80
2024-01-19T21:45:15.039Z,14.80
2024-01-19T21:47:44.134Z,13.70
2024-01-19T21:50:12.172Z,13.60
2024-01-19T21:52:40.457Z,14.00
2024-01-19T21:55:08.459Z,16.30
2024-01-19T21:57:36.837Z,17.20
2024-01-19T22:00:04.855Z,16.00
2024-01-19T22:02:32.555Z,15.10
2024-01-19T22:05:01.165Z,15.80
2024-01-19T22:07:28.434Z,15.10
2024-01-19T22:09:59.784Z,15.90
2024-01-19T22:12:27.129Z,16.30
2024-01-19T22:14:54.305Z,14.00
2024-01-19T22:17:21.935Z,15.20
2024-01-19T22:19:50.294Z,17.00
2024-01-19T22:22:17.639Z,17.40
2024-01-19T22:24:44.798Z,16.50
2024-01-19T22:27:11.983Z,15.80
2024-01-19T22:29:39.877Z,15.10
2024-01-19T22:32:07.435Z,15.40
2024-01-19T22:34:34.784Z,15.70
2024-01-19T22:37:02.639Z,18.50
2024-01-19T22:39:30.320Z,18.00
2024-01-19T22:41:58.400Z,17.50
2024-01-19T22:44:25.813Z,17.30
2024-01-19T22:46:53.351Z,18.00
2024-01-19T22:49:21.059Z,18.10
2024-01-19T22:51:48.394Z,17.20
2024-01-19T22:54:15.630Z,17.50
2024-01-19T22:56:43.115Z,16.70
2024-01-19T22:59:10.876Z,16.60
2024-01-19T23:01:38.135Z,16.00
2024-01-19T23:04:05.898Z,16.20
2024-01-19T23:06:33.193Z,16.00
2024-01-19T23:09:01.046Z,17.70
2024-01-19T23:11:29.712Z,18.10
2024-01-19T23:13:57.509Z,17.70
2024-01-19T23:16:24.725Z,19.30
2024-01-19T23:18:52.474Z,20.70
2024-01-19T23:21:20.020Z,20.10
2024-01-19T23:23:47.665Z,20.20
2024-01-19T23:26:15.115Z,18.70
2024-01-19T23:28:43.089Z,20.50
2024-01-19T23:31:13.662Z,22.80
2024-01-19T23:33:41.461Z,24.30
2024-01-19T23:36:12.091Z,25.00
2024-01-19T23:38:40.314Z,23.20
2024-01-19T23:41:07.690Z,24.70
2024-01-19T23:43:35.345Z,22.00
2024-01-19T23:46:03.068Z,26.40
2024-01-19T23:48:30.238Z,25.60
2024-01-19T23:50:57.449Z,27.10
2024-01-19T23:53:24.769Z,26.70
2024-01-19T23:55:51.986Z,28.40
2024-01-19T23:58:19.029Z,26.50
